createdAt,value
2023-03-23T16:01:45.036Z,14.50
2023-03-23T16:06:44.275Z,13.90
2023-03-23T16:11:46.823Z,14.30
2023-03-23T16:14:17.351Z,14.40
2023-03-23T16:16:51.163Z,14.70
2023-03-23T16:19:24.575Z,14.70
2023-03-23T16:24:23.163Z,13.80
2023-03-23T16:29:34.285Z,13.00
2023-03-23T16:32:08.421Z,12.80
2023-03-23T16:34:38.318Z,12.70
2023-03-23T16:37:08.693Z,12.60
2023-03-23T16:39:38.052Z,12.60
2023-03-23T16:42:08.576Z,12.60
2023-03-23T16:47:09.614Z,13.10
2023-03-23T16:52:07.264Z,13.30
2023-03-23T16:54:35.334Z,13.10
2023-03-23T17:04:39.245Z,12.70
2023-03-23T17:07:08.908Z,12.60
2023-03-23T17:09:38.211Z,12.50
2023-03-23T17:12:09.217Z,12.40
2023-03-23T17:17:10.499Z,12.30
2023-03-23T17:19:39.022Z,12.30
2023-03-23T17:22:09.481Z,12.20
2023-03-23T17:24:38.713Z,12.10
2023-03-23T17:27:09.643Z,11.90
2023-03-23T17:29:38.958Z,11.70
2023-03-23T17:32:07.311Z,11.60
2023-03-23T17:34:38.150Z,11.50
2023-03-23T17:37:07.849Z,11.40
2023-03-23T17:39:43.351Z,11.40
2023-03-23T17:42:15.200Z,11.40
2023-03-23T17:44:44.946Z,11.40
2023-03-23T17:47:14.658Z,11.40
2023-03-23T17:49:42.709Z,11.50
2023-03-23T17:52:10.733Z,11.60
2023-03-23T17:54:40.184Z,11.50
2023-03-23T17:57:08.178Z,11.50
2023-03-23T17:59:37.589Z,11.60
2023-03-23T18:04:36.021Z,11.70
2023-03-23T18:14:35.469Z,11.60
2023-03-23T18:17:05.994Z,11.60
2023-03-23T18:22:02.728Z,11.60
2023-03-23T18:27:03.501Z,11.50
2023-03-23T18:29:33.998Z,11.50
2023-03-23T18:37:04.371Z,11.40
2023-03-23T18:39:35.398Z,11.40
2023-03-23T18:42:04.886Z,11.30
2023-03-23T18:44:34.175Z,11.30
2023-03-23T18:47:02.350Z,11.30
2023-03-23T18:49:33.566Z,11.30
2023-03-23T18:54:36.306Z,11.20
2023-03-23T18:57:04.939Z,11.30
2023-03-23T18:59:35.886Z,11.20
2023-03-23T19:04:35.094Z,10.90
2023-03-23T19:07:05.749Z,10.70
2023-03-23T19:09:35.963Z,10.50
2023-03-23T19:12:05.790Z,10.40
2023-03-23T19:14:35.038Z,10.30
2023-03-23T19:17:03.069Z,10.20
2023-03-23T19:22:01.038Z,11.90
2023-03-23T19:24:31.895Z,10.00
2023-03-23T19:26:59.991Z,9.90
2023-03-23T19:29:28.361Z,10.10
2023-03-23T19:31:58.845Z,10.00
2023-03-23T19:39:37.246Z,9.90
2023-03-23T19:44:35.374Z,10.00
2023-03-23T19:47:05.063Z,10.00
2023-03-23T19:49:34.331Z,10.00
2023-03-23T19:52:07.150Z,9.90
2023-03-23T19:54:42.825Z,9.90
2023-03-23T19:57:12.302Z,9.80
2023-03-23T19:59:42.279Z,9.90
2023-03-23T20:02:12.799Z,9.80
2023-03-23T20:04:45.453Z,9.80
2023-03-23T20:07:15.710Z,9.80
2023-03-23T20:09:46.302Z,9.70
2023-03-23T20:12:14.555Z,9.70
2023-03-23T20:14:45.074Z,9.60
2023-03-23T20:24:46.613Z,9.60
2023-03-23T20:27:17.837Z,9.60
2023-03-23T20:32:16.965Z,9.60
2023-03-23T20:34:50.408Z,9.60
2023-03-23T20:37:20.819Z,9.60
2023-03-23T20:39:50.096Z,9.50
2023-03-23T20:42:21.550Z,9.50
2023-03-23T20:44:51.992Z,9.50
2023-03-23T20:47:20.448Z,9.40
2023-03-23T20:52:23.259Z,9.50
2023-03-23T20:54:53.899Z,9.60
2023-03-23T20:57:24.667Z,9.60
2023-03-23T20:59:53.460Z,9.70
2023-03-23T21:02:21.499Z,9.70
2023-03-23T21:04:52.739Z,9.70
2023-03-23T21:09:54.225Z,9.90
2023-03-23T21:12:22.470Z,10.00
2023-03-23T21:17:20.632Z,10.10
2023-03-23T21:22:19.582Z,10.40
2023-03-23T21:27:19.966Z,10.60
2023-03-23T21:29:50.416Z,10.70
2023-03-23T21:32:21.003Z,10.80
2023-03-23T21:34:49.005Z,10.80
2023-03-23T21:37:16.953Z,11.00
2023-03-23T21:44:44.668Z,11.10
2023-03-23T21:47:14.024Z,11.20
2023-03-23T21:49:46.011Z,11.20
2023-03-23T21:52:14.051Z,11.30
2023-03-23T21:57:11.559Z,11.30
2023-03-23T22:04:40.828Z,11.40
2023-03-23T22:14:46.078Z,11.50
2023-03-23T22:17:15.532Z,11.60
2023-03-23T22:19:45.922Z,11.60
2023-03-23T22:22:15.280Z,11.70
2023-03-23T22:24:44.709Z,11.70
2023-03-23T22:27:14.188Z,11.70
2023-03-23T22:29:43.347Z,11.70
2023-03-23T22:34:41.116Z,11.90
2023-03-23T22:37:09.075Z,11.90
2023-03-23T22:52:09.229Z,11.80
2023-03-23T22:57:08.417Z,12.00
2023-03-23T22:59:37.731Z,12.00
2023-03-23T23:02:06.875Z,12.00
2023-03-23T23:04:35.019Z,12.00
2023-03-23T23:07:12.500Z,12.00
2023-03-23T23:09:44.201Z,12.00
2023-03-23T23:14:46.149Z,11.90
2023-03-23T23:17:15.368Z,11.90
2023-03-23T23:19:46.989Z,11.80
2023-03-23T23:22:19.413Z,11.60
2023-03-23T23:27:18.084Z,11.40
2023-03-23T23:34:48.538Z,11.10
2023-03-23T23:39:47.206Z,11.00
2023-03-23T23:42:15.607Z,10.80
2023-03-23T23:44:47.632Z,10.80
2023-03-23T23:47:16.785Z,10.70
2023-03-23T23:49:44.776Z,10.80
2023-03-23T23:52:15.522Z,10.70
2023-03-23T23:54:48.178Z,10.70
2023-03-23T23:57:17.911Z,10.60
2023-03-23T23:59:49.034Z,10.60
